Time;durP1;ratioP1;P1;durP2;ratioP2;P2;SDS_P1;SDS_P2;PMS_P1;PMS_P2;Temp;Humidity;BMP_temperature;BMP_pressure;BME280_temperature;BME280_humidity;BME280_pressure;Samples;Min_cycle;Max_cycle;Signal;HPM_P1;HPM_P2
2021/11/29 21:05:15;;;;;;;26.75;15.83;;;;;;;12.08;83.52;99604.98;1805285;77;21656;-78
2021/11/29 21:07:48;;;;;;;24.02;16.05;;;;;;;12.09;82.86;99613.58;1823749;78;22563;-76
2021/11/29 21:10:22;;;;;;;25.25;16.48;;;;;;;12.03;82.49;99621.73;1819627;77;21181;-74
2021/11/29 21:12:55;;;;;;;29.35;15.28;;;;;;;11.97;82.16;99627.63;1816103;77;21141;-76
2021/11/29 21:15:27;;;;;;;31.23;16.65;;;;;;;11.92;82.26;99635.48;1816387;77;21307;-77
2021/11/29 21:18:01;;;;;;;26.17;15.45;;;;;;;11.93;82.02;99642.69;1817271;77;21243;-75
2021/11/29 21:20:33;;;;;;;31.23;17.37;;;;;;;11.90;81.77;99643.84;1819276;78;21854;-75
2021/11/29 21:23:08;;;;;;;24.67;15.10;;;;;;;11.82;81.56;99648.67;1825202;78;21396;-77
2021/11/29 21:25:46;;;;;;;24.45;15.58;;;;;;;11.71;81.62;99647.95;1831406;77;21355;-78
2021/11/29 21:28:30;;;;;;;23.07;14.65;;;;;;;11.64;81.83;99647.48;1820302;77;21193;-76
2021/11/29 21:31:14;;;;;;;29.70;15.83;;;;;;;11.58;82.07;99654.21;1831881;77;21186;-77
2021/11/29 21:33:53;;;;;;;26.65;15.80;;;;;;;11.57;82.09;99662.22;1811695;79;21265;-79
2021/11/29 21:36:21;;;;;;;27.00;17.23;;;;;;;11.59;81.87;99669.77;1801172;79;21227;-74
2021/11/29 21:38:54;;;;;;;23.77;15.20;;;;;;;11.55;81.48;99670.03;1818738;77;21343;-75
2021/11/29 21:41:28;;;;;;;25.70;16.17;;;;;;;11.56;81.44;99662.54;1823118;78;21340;-81
2021/11/29 21:44:23;;;;;;;21.95;12.90;;;;;;;11.53;81.15;99668.13;1832490;77;21224;-77
2021/11/29 21:47:02;;;;;;;21.48;14.83;;;;;;;11.52;80.93;99676.20;1833695;77;21348;-77
2021/11/29 21:49:36;;;;;;;21.68;14.98;;;;;;;11.52;80.59;99684.53;1826078;78;21328;-74
2021/11/29 21:52:13;;;;;;;22.85;15.10;;;;;;;11.53;80.27;99689.52;1817230;77;21139;-76
2021/11/29 21:54:46;;;;;;;24.83;15.67;;;;;;;11.49;79.82;99700.39;1776309;80;21180;-75
2021/11/29 21:57:23;;;;;;;25.23;16.00;;;;;;;11.42;79.43;99706.84;1777257;80;21337;-76
2021/11/29 21:59:54;;;;;;;23.12;15.28;;;;;;;11.37;79.73;99712.44;1772534;79;21213;-76
2021/11/29 22:02:27;;;;;;;24.95;13.88;;;;;;;11.35;79.57;99716.08;1756888;80;21320;-76
2021/11/29 22:05:04;;;;;;;27.20;15.65;;;;;;;11.26;79.51;99723.35;1781911;80;21305;-77
2021/11/29 22:07:39;;;;;;;24.25;15.53;;;;;;;11.19;79.82;99717.30;1760278;81;21312;-77
2021/11/29 22:10:12;;;;;;;25.57;14.87;;;;;;;11.16;80.09;99726.22;1756613;81;21337;-78
2021/11/29 22:12:46;;;;;;;25.77;15.77;;;;;;;11.14;80.50;99731.80;1758928;81;21287;-77
2021/11/29 22:15:19;;;;;;;27.80;13.68;;;;;;;11.17;80.82;99735.37;1755992;81;21444;-77
2021/11/29 22:17:55;;;;;;;20.47;13.60;;;;;;;11.17;80.80;99745.09;1768635;80;21217;-76
2021/11/29 22:20:28;;;;;;;28.73;16.73;;;;;;;11.13;80.69;99753.75;1763928;80;21157;-77
2021/11/29 22:23:02;;;;;;;27.93;16.37;;;;;;;11.06;80.65;99750.47;1761955;77;21221;-78
2021/11/29 22:25:34;;;;;;;26.85;15.23;;;;;;;11.00;80.92;99760.75;1765596;77;21149;-77
2021/11/29 22:28:07;;;;;;;27.60;14.33;;;;;;;10.98;81.09;99760.77;1757717;80;21827;-77
2021/11/29 22:30:40;;;;;;;24.85;15.70;;;;;;;10.91;80.97;99763.03;1760369;80;21339;-75
2021/11/29 22:33:13;;;;;;;20.70;13.50;;;;;;;10.82;80.97;99765.56;1734384;82;21226;-76
2021/11/29 22:35:45;;;;;;;20.95;14.10;;;;;;;10.80;81.17;99765.03;1731789;81;21256;-76
2021/11/29 22:38:22;;;;;;;22.87;13.48;;;;;;;10.80;81.17;99782.23;1789124;79;21331;-77
2021/11/29 22:40:56;;;;;;;22.42;13.70;;;;;;;10.84;81.35;99785.57;1782890;78;21383;-76
2021/11/29 22:43:28;;;;;;;23.98;14.13;;;;;;;10.91;81.13;99795.81;1781695;80;21352;-86
2021/11/29 22:46:01;;;;;;;23.00;14.18;;;;;;;10.89;80.83;99807.73;1780217;80;21993;-81
2021/11/29 22:48:40;;;;;;;20.45;12.80;;;;;;;10.80;80.84;99813.62;1774960;80;21429;-76
2021/11/29 22:51:11;;;;;;;20.17;12.88;;;;;;;10.76;80.85;99829.75;1774684;80;21677;-75
2021/11/29 22:53:45;;;;;;;24.52;15.90;;;;;;;10.67;81.17;99831.43;1775194;79;21340;-76
2021/11/29 22:58:52;;;;;;;25.50;16.20;;;;;;;10.52;81.49;99857.28;1742204;82;21344;-79
2021/11/29 23:01:30;;;;;;;25.85;15.40;;;;;;;10.48;81.39;99857.58;1739924;80;21439;-76
2021/11/29 23:04:04;;;;;;;19.60;11.78;;;;;;;10.41;81.21;99865.91;1777872;80;21755;-76
2021/11/29 23:06:36;;;;;;;23.32;13.00;;;;;;;10.36;81.44;99866.76;1770013;80;21857;-77
2021/11/29 23:09:13;;;;;;;22.85;12.45;;;;;;;10.30;81.14;99872.04;1761127;80;21199;-82
2021/11/29 23:11:47;;;;;;;20.50;13.13;;;;;;;10.23;80.82;99892.30;1787176;80;21225;-85
2021/11/29 23:14:24;;;;;;;18.67;11.85;;;;;;;10.18;80.73;99890.06;1770271;80;21340;-85
2021/11/29 23:17:01;;;;;;;21.35;12.28;;;;;;;10.16;80.24;99895.06;1783432;80;21372;-78
2021/11/29 23:19:34;;;;;;;17.32;10.70;;;;;;;10.13;79.96;99898.38;1789325;80;21771;-77
2021/11/29 23:22:07;;;;;;;18.62;10.50;;;;;;;10.09;79.63;99905.03;1778284;80;21194;-87
2021/11/29 23:24:42;;;;;;;20.77;11.53;;;;;;;10.05;79.01;99915.58;1772129;80;21978;-73
2021/11/29 23:27:15;;;;;;;16.27;9.75;;;;;;;10.04;78.68;99920.28;1744848;81;21210;-88
2021/11/29 23:29:47;;;;;;;24.02;12.68;;;;;;;10.03;78.16;99921.39;1762174;80;21197;-82
2021/11/29 23:32:19;;;;;;;26.30;12.63;;;;;;;10.00;77.46;99930.78;1762668;80;21259;-84
2021/11/29 23:34:52;;;;;;;23.98;11.97;;;;;;;9.98;77.14;99931.63;1762295;80;21209;-76
2021/11/29 23:37:24;;;;;;;19.67;10.88;;;;;;;9.97;76.67;99943.26;1774160;80;21194;-73
2021/11/29 23:39:56;;;;;;;18.70;10.78;;;;;;;9.89;75.73;99952.67;1779757;79;21388;-73
2021/11/29 23:42:30;;;;;;;16.00;9.08;;;;;;;9.80;75.46;99955.71;1760794;80;21371;-86
2021/11/29 23:45:02;;;;;;;14.47;8.75;;;;;;;9.76;75.05;99954.58;1794436;79;21754;-75
2021/11/29 23:47:45;;;;;;;12.15;7.30;;;;;;;9.72;75.10;99961.23;1794173;78;21339;-76
2021/11/29 23:50:10;;;;;;;12.28;7.47;;;;;;;9.68;74.52;99971.19;1786781;80;21346;-76
2021/11/29 23:52:42;;;;;;;13.05;8.35;;;;;;;9.63;74.10;99976.73;1794947;79;21185;-77
2021/11/29 23:55:16;;;;;;;12.37;7.15;;;;;;;9.59;73.23;99982.53;1794191;79;21339;-75
2021/11/29 23:57:48;;;;;;;11.38;7.00;;;;;;;9.59;72.92;99995.00;1795109;79;21244;-77
